Latest Weather Observations for Merriwa

IDN60801

Issued at 5:32 pm EDT Wednesday 10 February 2016 (issued every 30 minutes, with the page automatically refreshed every 10 minutes)

About weather observations | Map of weather stations | Latest weather observations for NSW | Other Formats
Station Details ID: 061287 Name: MERRIWA (ROSCOMMON) Lat: -32.19 Lon: 150.17 Height: 375.0 m
Data from the previous 72 hours. | See also: Recent months at Merriwa
Date/Time
EDT
Temp
°C
App
Temp
°C
Dew
Point
Rel
Hum
%
Delta-T
°C
Wind Press
QNH
hPa
Press
MSL
hPa
Rain
since 9 am
mm
Dir
 
Spd
km/h
Gust
km/h
Spd
kts
Gust
kts
10/05:30pm 30.0 29.0 13.3 36 10.1 E 11 20 6 11 1012.9 1011.1 0.0
10/05:00pm 30.3 29.8 14.8 39 9.6 ENE 11 19 6 10 1012.9 1011.1 0.0
10/04:30pm 30.4 29.5 13.7 36 10.2 SE 11 22 6 12 1013.2 1011.4 0.0
10/04:00pm 29.9 29.1 14.0 37 9.7 SE 11 20 6 11 1013.4 1011.6 0.0
10/03:30pm 29.9 28.5 14.4 38 9.5 SE 15 28 8 15 1013.8 1012.0 0.0
10/03:00pm 29.5 28.5 14.5 40 9.2 ESE 13 24 7 13 1014.1 1012.3 0.0
10/02:30pm 28.9 27.7 13.9 39 9.1 SSE 13 22 7 12 1014.7 1012.9 0.0
10/02:00pm 28.2 27.3 14.8 44 8.2 S 13 22 7 12 1015.1 1013.3 0.0
10/01:30pm 27.2 26.2 13.5 42 8.2 SE 11 20 6 11 1015.6 1013.8 0.0
10/01:00pm 27.5 27.1 15.2 47 7.6 E 11 22 6 12 1016.0 1014.2 0.0
10/12:30pm 26.3 25.9 14.1 47 7.4 NE 9 17 5 9 1016.4 1014.6 0.0
10/12:00pm 25.2 23.5 12.4 45 7.5 ESE 13 19 7 10 1016.9 1015.2 0.0
10/11:30am 24.7 24.3 15.3 56 5.7 SE 11 20 6 11 1017.4 1015.6 0.0
10/11:00am 24.2 23.7 14.9 56 5.6 SE 11 15 6 8 1017.6 1015.8 0.0
10/10:30am 23.3 23.0 14.3 57 5.4 ENE 9 15 5 8 1018.0 1016.2 0.0
10/10:02am 21.8 22.1 15.9 69 3.6 ENE 9 15 5 8 1018.1 1016.3 0.0
10/10:00am 21.8 22.1 15.9 69 3.6 ENE 9 15 5 8 1018.1 1016.3 0.0
10/09:30am 20.2 20.6 16.4 79 2.3 ENE 9 13 5 7 1018.2 1016.4 0.0
10/09:00am 19.4 20.2 17.2 87 1.4 ENE 9 13 5 7 1018.1 1016.3 0.0
10/08:30am 17.9 18.8 17.6 98 0.2 NNE 9 13 5 7 1018.1 1016.3 0.0
10/08:06am 17.3 18.0 17.1 99 0.1 NE 9 11 5 6 1018.0 1016.2 0.0
10/08:05am 17.0 17.6 16.8 99 0.1 NE 9 11 5 6 1018.0 1016.2 0.0
10/08:00am 17.1 17.7 16.9 99 0.1 NE 9 11 5 6 1018.0 1016.2 0.0
10/07:48am 16.8 17.9 16.6 99 0.1 WSW 6 7 3 4 1017.9 1016.1 0.0
10/07:30am 14.7 16.1 14.4 98 0.2 CALM 0 0 0 0 1017.8 1016.0 0.0
10/07:00am 12.1 12.7 11.8 98 0.2 CALM 0 0 0 0 1017.7 1015.9 0.0
10/06:30am 12.7 13.5 12.4 98 0.2 CALM 0 0 0 0 1017.6 1015.8 0.0
10/06:00am 12.9 13.7 12.6 98 0.2 CALM 0 0 0 0 1017.4 1015.6 0.0
10/05:30am 12.8 13.6 12.5 98 0.2 CALM 0 0 0 0 1017.3 1015.5 0.0
10/05:00am 13.2 14.1 12.9 98 0.2 CALM 0 0 0 0 1017.0 1015.3 0.0
10/04:30am 13.7 14.8 13.4 98 0.2 CALM 0 0 0 0 1016.9 1015.2 0.0
10/04:00am 14.1 15.3 13.8 98 0.2 CALM 0 0 0 0 1017.0 1015.3 0.0
10/03:30am 15.1 15.3 14.8 98 0.2 E 7 9 4 5 1017.1 1015.4 0.0
10/03:00am 15.7 15.8 15.4 98 0.2 ESE 9 11 5 6 1017.4 1015.6 0.0
10/02:30am 16.3 16.2 16.0 98 0.2 ESE 11 15 6 8 1017.7 1015.9 0.0
10/02:00am 16.0 16.1 15.5 97 0.3 ESE 9 13 5 7 1018.0 1016.2 0.0
10/01:30am 15.8 16.3 15.0 95 0.5 SE 6 9 3 5 1018.4 1016.6 0.0
10/01:00am 16.7 17.1 15.2 91 0.9 ESE 7 11 4 6 1018.7 1016.9 0.0
10/12:30am 17.4 17.0 16.1 92 0.8 ESE 13 17 7 9 1018.8 1017.0 0.0
10/12:00am 17.8 17.3 16.0 89 1.1 E 13 17 7 9 1019.1 1017.4 0.0
 
Date/Time
EDT
Temp
°C
App
Temp
°C
Dew
Point
Rel
Hum
%
Delta-T
°C
Wind Press
QNH
hPa
Press
MSL
hPa
Rain
since 9 am
mm
Dir
 
Spd
km/h
Gust
km/h
Spd
kts
Gust
kts
09/11:30pm 18.2 17.3 15.8 86 1.4 ESE 15 19 8 10 1019.3 1017.6 0.0
09/11:00pm 19.0 17.2 15.9 82 1.9 ESE 20 26 11 14 1019.4 1017.7 0.0
09/10:30pm 19.6 18.1 16.3 81 2.0 E 19 28 10 15 1019.4 1017.7 0.0
09/10:00pm 20.3 18.2 16.3 78 2.4 E 22 30 12 16 1019.2 1017.5 0.0
09/09:30pm 20.9 19.2 16.3 75 2.8 ESE 20 30 11 16 1019.0 1017.2 0.0
09/09:00pm 21.5 19.9 16.0 71 3.4 E 19 28 10 15 1018.8 1017.0 0.0
09/08:30pm 21.7 21.0 15.3 67 3.9 E 13 20 7 11 1018.5 1016.7 0.0
09/08:00pm 22.8 21.2 14.9 61 4.8 E 17 22 9 12 1018.3 1016.5 0.0
09/07:30pm 24.3 22.4 15.2 57 5.5 E 19 26 10 14 1018.1 1016.3 0.0
09/07:00pm 25.4 23.6 15.4 54 6.1 E 19 28 10 15 1017.8 1016.0 0.0
09/06:30pm 26.4 23.9 15.1 49 6.9 E 22 35 12 19 1017.6 1015.8 0.0
09/06:00pm 27.1 24.6 15.1 47 7.4 ESE 22 32 12 17 1017.6 1015.8 0.0
09/05:30pm 27.5 25.5 15.5 48 7.4 E 20 33 11 18 1017.7 1015.9 0.0
09/05:00pm 27.5 25.1 14.5 45 7.9 E 20 32 11 17 1017.9 1016.1 0.0
09/04:30pm 27.2 24.4 13.2 42 8.4 ESE 20 33 11 18 1018.1 1016.3 0.0
09/04:00pm 27.4 25.3 13.7 43 8.2 E 17 32 9 17 1018.3 1016.5 0.0
09/03:30pm 28.3 25.8 14.2 42 8.6 SE 20 30 11 16 1018.5 1016.7 0.0
09/03:00pm 26.8 23.8 12.5 41 8.4 SE 20 30 11 16 1018.9 1017.1 0.0
09/02:30pm 27.6 25.0 13.9 43 8.3 ESE 20 35 11 19 1019.4 1017.7 0.0
09/02:00pm 26.9 23.5 13.6 44 8.0 ESE 24 35 13 19 1019.7 1018.0 0.0
09/01:30pm 27.6 23.7 14.3 44 8.1 ESE 28 39 15 21 1020.3 1018.5 0.0
09/01:00pm 25.8 22.3 13.3 46 7.4 ESE 24 35 13 19 1020.6 1018.8 0.0
09/12:30pm 25.8 22.6 14.3 49 7.0 SE 24 39 13 21 1020.9 1019.1 0.0
09/12:00pm 25.8 22.4 13.6 47 7.3 ESE 24 37 13 20 1021.1 1019.3 0.0
09/11:30am 25.4 22.8 14.8 52 6.4 ESE 22 32 12 17 1021.4 1019.6 0.0
09/11:00am 24.4 21.2 15.3 57 5.5 ESE 26 35 14 19 1021.7 1020.0 0.0
09/10:30am 23.1 20.6 16.2 65 4.3 ESE 24 33 13 18 1021.9 1020.2 0.0
09/10:00am 22.4 20.4 15.5 65 4.2 ESE 20 32 11 17 1021.7 1020.0 0.0
09/09:30am 22.2 20.2 16.5 70 3.5 ESE 22 30 12 16 1021.7 1020.0 0.0
09/09:00am 21.0 20.6 17.2 79 2.4 ESE 15 24 8 13 1021.6 1019.9 0.0
09/08:30am 19.6 20.4 17.2 86 1.5 E 9 11 5 6 1021.3 1019.5 0.0
09/08:00am 18.0 19.4 17.7 98 0.2 ESE 7 13 4 7 1021.1 1019.3 0.0
09/07:30am 15.6 16.0 15.3 98 0.2 E 7 9 4 5 1020.8 1019.0 0.0
09/07:00am 14.8 16.2 14.5 98 0.2 CALM 0 0 0 0 1020.6 1018.8 0.0
09/06:30am 13.4 14.4 13.1 98 0.2 CALM 0 0 0 0 1020.2 1018.4 0.0
09/06:00am 14.8 16.2 14.5 98 0.2 CALM 0 0 0 0 1019.9 1018.2 0.0
09/05:30am 14.9 15.2 14.6 98 0.2 ENE 6 9 3 5 1019.5 1017.8 0.0
09/05:00am 14.9 15.1 14.6 98 0.2 ENE 7 7 4 4 1019.4 1017.7 0.0
09/04:30am 14.0 13.8 13.7 98 0.2 E 7 9 4 5 1019.3 1017.6 0.0
09/04:00am 15.1 14.9 14.8 98 0.2 ESE 9 9 5 5 1019.2 1017.5 0.0
09/03:30am 15.2 15.5 14.9 98 0.2 ENE 7 9 4 5 1019.3 1017.6 0.0
09/03:00am 16.6 16.2 16.3 98 0.2 SE 13 15 7 8 1019.4 1017.7 0.0
09/02:30am 16.7 16.4 16.4 98 0.2 SE 13 15 7 8 1019.6 1017.9 0.0
09/02:00am 16.3 16.2 16.0 98 0.2 ESE 11 13 6 7 1019.7 1018.0 0.0
09/01:30am 16.9 16.7 16.6 98 0.2 ESE 13 15 7 8 1019.7 1018.0 0.0
09/01:00am 17.2 17.0 16.6 96 0.4 ESE 13 15 7 8 1019.9 1018.2 0.0
09/12:30am 17.7 17.7 16.2 91 0.9 E 11 17 6 9 1020.1 1018.3 0.0
09/12:00am 18.5 18.3 16.7 89 1.1 E 13 17 7 9 1020.1 1018.3 0.0
 
Date/Time
EDT
Temp
°C
App
Temp
°C
Dew
Point
Rel
Hum
%
Delta-T
°C
Wind Press
QNH
hPa
Press
MSL
hPa
Rain
since 9 am
mm
Dir
 
Spd
km/h
Gust
km/h
Spd
kts
Gust
kts
08/11:30pm 19.2 18.7 16.8 86 1.5 E 15 20 8 11 1019.9 1018.2 0.0
08/11:00pm 19.1 18.4 16.5 85 1.6 E 15 20 8 11 1019.8 1018.1 0.0
08/10:30pm 18.8 19.1 15.9 83 1.7 E 9 13 5 7 1019.8 1018.1 0.0
08/10:00pm 20.2 20.6 16.4 79 2.3 E 9 15 5 8 1019.5 1017.8 0.0
08/09:30pm 20.9 20.7 16.7 77 2.6 E 13 20 7 11 1019.1 1017.4 0.0
08/09:00pm 21.0 21.1 16.4 75 2.8 ENE 11 15 6 8 1018.8 1017.0 0.0
08/08:30pm 22.3 22.1 16.6 70 3.5 E 13 17 7 9 1018.3 1016.5 0.0
08/08:00pm 23.6 22.5 16.4 64 4.5 E 17 24 9 13 1018.0 1016.2 0.0
08/07:30pm 25.1 22.8 15.7 56 5.8 E 22 33 12 18 1017.8 1016.0 0.0
08/07:00pm 26.3 23.9 15.4 51 6.7 ESE 22 30 12 16 1017.4 1015.6 0.0
08/06:30pm 27.2 25.6 15.9 50 7.0 E 19 26 10 14 1017.0 1015.3 0.0
08/06:00pm 27.7 25.1 15.0 45 7.8 SE 22 32 12 17 1017.0 1015.3 0.0
08/05:30pm 28.2 26.0 14.4 42 8.4 ESE 19 28 10 15 1017.0 1015.3 0.0
08/05:00pm 28.3 26.0 14.2 42 8.6 ESE 19 28 10 15 1017.1 1015.4 0.0
08/04:30pm 27.8 24.7 14.4 43 8.2 ESE 24 39 13 21 1017.3 1015.5 0.0
08/04:00pm 28.1 26.1 15.4 46 7.9 ESE 20 28 11 15 1017.5 1015.7 0.0
08/03:30pm 28.6 26.5 15.2 44 8.3 E 20 33 11 18 1017.8 1016.0 0.0
08/03:00pm 26.6 24.4 15.0 49 7.1 ESE 20 33 11 18 1018.0 1016.2 0.0
08/02:30pm 27.2 25.5 16.2 51 6.9 E 20 30 11 16 1018.3 1016.5 0.0
08/02:00pm 27.3 25.6 16.3 51 6.9 E 20 32 11 17 1018.7 1016.9 0.0
08/01:30pm 25.7 23.9 16.0 55 6.0 E 20 37 11 20 1019.0 1017.2 0.0
08/01:00pm 26.1 24.7 16.9 57 5.8 E 20 32 11 17 1019.2 1017.5 0.0
08/12:30pm 26.7 25.3 16.9 55 6.2 ESE 20 30 11 16 1019.5 1017.8 0.0
08/12:00pm 26.3 25.5 17.1 57 5.8 ESE 17 26 9 14 1019.8 1018.1 0.0
08/11:30am 24.9 23.5 16.9 61 5.0 E 20 32 11 17 1020.1 1018.3 0.0
08/11:00am 23.9 22.6 15.7 60 5.0 ESE 17 26 9 14 1020.2 1018.4 0.0
08/10:30am 23.2 21.5 15.8 63 4.5 ESE 19 30 10 16 1020.3 1018.5 0.0
08/10:00am 22.7 21.7 15.5 64 4.4 ESE 15 26 8 14 1020.2 1018.4 0.0
08/09:30am 21.5 20.5 16.7 74 3.0 ESE 17 24 9 13 1020.3 1018.5 0.0
08/09:00am 19.7 19.9 16.7 83 1.8 E 11 15 6 8 1020.3 1018.5 0.0
08/08:30am 18.7 20.0 18.4 98 0.2 ESE 9 13 5 7 1020.2 1018.4 0.0
08/08:20am 17.6 18.4 17.3 98 0.2 ESE 9 11 5 6 1020.2 1018.4 0.0
08/08:00am 16.4 18.1 16.2 99 0.1 S 2 6 1 3 1019.9 1018.2 0.0
08/07:30am 13.3 14.2 13.0 98 0.2 CALM 0 0 0 0 1019.7 1018.0 0.0
08/07:09am 11.3 11.6 11.0 98 0.2 CALM 0 0 0 0 1019.4 1017.7 0.0
08/07:00am 10.9 10.0 10.6 98 0.2 SSW 6 9 3 5 1019.4 1017.7 0.0
08/06:30am 12.5 12.0 12.2 98 0.2 ESE 6 7 3 4 1018.8 1017.0 0.0
08/06:00am 12.2 11.5 11.9 98 0.2 ESE 7 9 4 5 1018.5 1016.7 0.0
08/05:30am 11.6 10.9 11.3 98 0.2 E 6 7 3 4 1018.3 1016.5 0.0
08/05:00am 12.9 12.6 12.6 98 0.2 ENE 6 7 3 4 1018.3 1016.5 0.0
08/04:30am 13.7 13.6 13.4 98 0.2 ENE 6 7 3 4 1018.2 1016.4 0.0
08/04:00am 13.0 12.7 12.7 98 0.2 ENE 6 7 3 4 1018.3 1016.5 0.0
08/03:30am 13.3 13.1 13.0 98 0.2 SE 6 7 3 4 1018.3 1016.5 0.0
08/03:00am 12.8 12.2 11.7 93 0.6 SE 6 7 3 4 1018.5 1016.7 0.0
08/02:30am 13.9 13.6 12.8 93 0.6 SE 6 7 3 4 1018.8 1017.0 0.0
08/02:00am 15.2 15.2 13.7 91 0.9 SE 6 9 3 5 1018.9 1017.1 0.0
08/01:30am 16.0 15.1 14.9 93 0.6 SE 13 17 7 9 1019.1 1017.4 0.0
08/01:00am 15.3 14.9 14.0 92 0.7 SE 9 13 5 7 1019.3 1017.6 0.0
08/12:30am 15.5 14.7 14.0 91 0.9 ESE 11 13 6 7 1019.3 1017.6 0.0
08/12:00am 16.1 15.2 13.6 85 1.4 ESE 11 13 6 7 1019.3 1017.6 0.0
 
Date/Time
EDT
Temp
°C
App
Temp
°C
Dew
Point
Rel
Hum
%
Delta-T
°C
Wind Press
QNH
hPa
Press
MSL
hPa
Rain
since 9 am
mm
Dir
 
Spd
km/h
Gust
km/h
Spd
kts
Gust
kts
07/11:30pm 17.5 16.8 14.4 82 1.8 ESE 11 15 6 8 1019.3 1017.6 0.0
07/11:00pm 18.4 17.1 14.7 79 2.2 ESE 15 20 8 11 1019.2 1017.5 0.0
07/10:30pm 19.1 17.4 14.6 75 2.7 E 17 20 9 11 1019.1 1017.4 0.0
07/10:00pm 19.5 18.1 14.5 73 2.9 ESE 15 22 8 12 1018.8 1017.0 0.0
07/09:30pm 19.5 18.3 13.9 70 3.3 ESE 13 17 7 9 1018.5 1016.7 0.0
07/09:00pm 20.3 18.4 14.2 68 3.6 ESE 17 20 9 11 1018.0 1016.2 0.0
07/08:30pm 20.9 19.4 14.1 65 4.0 E 15 20 8 11 1017.6 1015.8 0.0
07/08:00pm 22.0 20.2 14.4 62 4.5 ESE 17 24 9 13 1017.0 1015.3 0.0
07/07:30pm 23.3 21.1 14.3 57 5.4 ESE 19 26 10 14 1016.7 1015.0 0.0
07/07:00pm 24.6 21.8 14.4 53 6.1 ESE 22 28 12 15 1016.3 1014.5 0.0
07/06:30pm 25.5 22.7 14.3 50 6.8 ESE 22 28 12 15 1016.0 1014.2 0.0
07/06:00pm 26.3 23.8 14.1 47 7.4 ESE 20 32 11 17 1015.7 1013.9 0.0

Other Formats:

Comma delimited format used in spreadsheet applications
http://www.bom.gov.au/fwo/IDN60801/IDN60801.95754.axf

JavaScript Object Notation format (JSON) in row-major order
http://www.bom.gov.au/fwo/IDN60801/IDN60801.95754.json